Time;durP1;ratioP1;P1;durP2;ratioP2;P2;SDS_P1;SDS_P2;PMS_P1;PMS_P2;Temp;Humidity;BMP_temperature;BMP_pressure;BME280_temperature;BME280_humidity;BME280_pressure;Samples;Min_cycle;Max_cycle;Signal;HPM_P1;HPM_P2
2023/09/30 00:00:59;;;;;;;11.00;4.23;;;;;;;20.83;100.00;96972.16;5024948;28;20000;-85
2023/09/30 00:03:25;;;;;;;10.50;4.27;;;;;;;20.83;100.00;96986.34;5031359;28;20040;-85
2023/09/30 00:05:51;;;;;;;8.63;3.80;;;;;;;20.82;100.00;96978.50;5028776;28;20025;-85
2023/09/30 00:08:16;;;;;;;11.80;4.20;;;;;;;20.99;100.00;96984.25;5015259;28;20061;-84
2023/09/30 00:10:42;;;;;;;11.13;4.67;;;;;;;20.94;100.00;96991.06;5030329;28;20388;-85
2023/09/30 00:13:12;;;;;;;10.57;4.13;;;;;;;21.15;100.00;96989.19;5030062;28;20165;-85
2023/09/30 00:15:37;;;;;;;10.63;4.20;;;;;;;21.19;100.00;96985.91;5030919;28;20031;-85
2023/09/30 00:18:03;;;;;;;11.50;4.27;;;;;;;21.20;100.00;96981.38;5015431;28;20033;-84
2023/09/30 00:20:29;;;;;;;10.68;4.35;;;;;;;21.22;100.00;96976.63;5033278;28;20083;-85
2023/09/30 00:22:55;;;;;;;11.77;4.53;;;;;;;21.59;100.00;96976.97;5027506;28;20051;-85
2023/09/30 00:25:23;;;;;;;10.25;3.78;;;;;;;20.93;100.00;96978.72;5030332;28;20048;-85
2023/09/30 00:27:49;;;;;;;9.10;4.13;;;;;;;21.11;100.00;96978.09;5034915;28;20028;-85
2023/09/30 00:30:14;;;;;;;10.23;4.20;;;;;;;21.15;100.00;96971.28;5018010;28;20116;-84
2023/09/30 00:32:40;;;;;;;10.03;3.57;;;;;;;21.33;100.00;96967.97;5037415;28;20029;-84
2023/09/30 00:35:11;;;;;;;8.80;3.17;;;;;;;21.22;100.00;96976.63;5020932;28;20029;-84
2023/09/30 00:37:38;;;;;;;9.68;3.92;;;;;;;21.41;100.00;96964.28;5011883;28;20025;-84
2023/09/30 00:40:04;;;;;;;9.27;4.07;;;;;;;21.15;100.00;96965.13;5025223;28;20029;-85
2023/09/30 00:42:30;;;;;;;10.18;3.97;;;;;;;21.22;100.00;96960.56;5029607;28;20513;-84
2023/09/30 00:44:56;;;;;;;7.40;3.30;;;;;;;21.25;100.00;96959.34;5030453;28;20041;-84
2023/09/30 00:47:22;;;;;;;9.18;3.83;;;;;;;21.39;100.00;96961.81;5029627;28;20091;-84
2023/09/30 00:49:50;;;;;;;9.17;3.83;;;;;;;21.17;100.00;96963.06;5013799;28;20546;-85
2023/09/30 00:52:16;;;;;;;10.02;4.07;;;;;;;21.25;100.00;96965.50;5013296;28;20030;-85
2023/09/30 00:54:43;;;;;;;9.25;3.35;;;;;;;21.21;100.00;96961.63;5021168;28;20021;-85
2023/09/30 00:57:11;;;;;;;9.05;3.88;;;;;;;21.11;100.00;96963.91;5025282;28;20533;-85
2023/09/30 00:59:37;;;;;;;9.13;3.33;;;;;;;21.02;100.00;96965.13;5029703;28;20036;-84
2023/09/30 01:02:05;;;;;;;8.67;4.10;;;;;;;20.82;100.00;96962.47;5032935;28;20111;-84
2023/09/30 01:04:31;;;;;;;9.40;3.97;;;;;;;20.94;100.00;96953.63;5032041;28;20565;-84
2023/09/30 01:06:59;;;;;;;8.82;4.25;;;;;;;20.68;100.00;96967.00;5028484;28;20037;-85
2023/09/30 01:09:27;;;;;;;8.27;3.40;;;;;;;20.91;100.00;96956.72;5029607;28;20029;-85
2023/09/30 01:11:53;;;;;;;11.33;5.93;;;;;;;20.76;100.00;96972.16;5028849;28;20060;-85
2023/09/30 01:14:29;;;;;;;6.57;3.13;;;;;;;20.98;100.00;96966.59;5029905;28;20491;-85
2023/09/30 01:16:56;;;;;;;9.25;3.47;;;;;;;20.79;100.00;96971.75;5045670;28;20033;-84
2023/09/30 01:19:24;;;;;;;8.90;3.20;;;;;;;21.00;100.00;96961.84;5010175;28;20034;-85
2023/09/30 01:21:50;;;;;;;7.30;2.83;;;;;;;21.21;100.00;96964.28;5032204;28;20036;-84
2023/09/30 01:24:15;;;;;;;9.30;3.67;;;;;;;21.25;100.00;96964.69;5030058;28;20025;-85
2023/09/30 01:26:43;;;;;;;6.72;2.85;;;;;;;21.26;100.00;96966.31;5040106;28;20545;-84
2023/09/30 01:29:12;;;;;;;7.97;3.37;;;;;;;21.33;100.00;96967.16;5032643;28;20107;-85
2023/09/30 01:31:38;;;;;;;9.23;3.63;;;;;;;21.15;100.00;96971.28;5035707;28;20039;-78
2023/09/30 01:34:04;;;;;;;9.55;3.92;;;;;;;21.09;100.00;96971.28;5019263;28;20060;-79
2023/09/30 01:36:30;;;;;;;10.68;3.60;;;;;;;20.97;100.00;96975.63;5013099;28;20054;-78
2023/09/30 01:38:56;;;;;;;8.35;4.03;;;;;;;21.14;100.00;96976.84;5018826;28;20481;-78
2023/09/30 01:41:23;;;;;;;10.27;4.20;;;;;;;21.09;100.00;96977.50;5032565;28;20025;-78
2023/09/30 01:43:49;;;;;;;8.50;3.80;;;;;;;21.00;100.00;96984.06;5017189;28;20044;-78
2023/09/30 01:46:14;;;;;;;10.10;4.03;;;;;;;20.99;100.00;96976.25;5021781;28;20030;-78
2023/09/30 01:48:46;;;;;;;8.60;3.60;;;;;;;21.26;100.00;96980.56;5030382;28;20096;-78
2023/09/30 01:51:11;;;;;;;9.93;4.53;;;;;;;20.95;100.00;96992.69;5035479;28;20116;-78
2023/09/30 01:53:37;;;;;;;7.93;3.40;;;;;;;21.27;100.00;96987.53;5035157;28;20031;-78
2023/09/30 01:56:02;;;;;;;10.52;3.38;;;;;;;20.93;100.00;96993.94;5030546;28;20026;-78
2023/09/30 01:58:28;;;;;;;8.23;3.03;;;;;;;21.11;100.00;96994.13;5013326;28;20391;-78
2023/09/30 02:00:54;;;;;;;6.07;3.23;;;;;;;21.44;100.00;96989.81;5013961;28;20030;-78
2023/09/30 02:03:19;;;;;;;7.53;3.80;;;;;;;21.45;100.00;96986.09;5038783;28;20119;-79
2023/09/30 02:05:45;;;;;;;9.05;3.58;;;;;;;21.15;100.00;96991.88;5016436;28;20484;-78
2023/09/30 02:08:11;;;;;;;7.20;2.63;;;;;;;21.41;100.00;96986.50;5015378;28;20044;-79
2023/09/30 02:10:36;;;;;;;7.50;3.50;;;;;;;21.71;100.00;96983.34;5015530;28;20029;-78
2023/09/30 02:13:05;;;;;;;7.60;3.10;;;;;;;21.31;100.00;96980.72;5006709;28;20089;-78
2023/09/30 02:15:31;;;;;;;9.30;3.13;;;;;;;21.35;100.00;96983.84;5022201;28;20095;-79
2023/09/30 02:17:57;;;;;;;7.78;3.25;;;;;;;21.60;100.00;96978.66;5015881;28;20033;-78
2023/09/30 02:20:25;;;;;;;7.35;3.50;;;;;;;21.37;100.00;96979.13;5026552;28;20535;-79
2023/09/30 02:22:52;;;;;;;6.63;3.45;;;;;;;21.51;100.00;96974.56;5033690;28;20033;-78
2023/09/30 02:25:18;;;;;;;7.53;2.90;;;;;;;21.44;100.00;96976.44;5015453;28;20044;-78
2023/09/30 02:27:45;;;;;;;8.02;3.75;;;;;;;21.26;100.00;96979.72;5016894;28;20025;-78
2023/09/30 02:30:11;;;;;;;6.45;2.90;;;;;;;21.25;100.00;96980.75;5029958;28;20396;-78
2023/09/30 02:32:39;;;;;;;8.73;3.25;;;;;;;21.26;100.00;96980.56;5031463;28;20033;-78
2023/09/30 02:35:05;;;;;;;5.82;3.08;;;;;;;21.29;100.00;96988.13;5032040;28;20033;-78
2023/09/30 02:37:35;;;;;;;8.98;3.03;;;;;;;21.55;100.00;96994.50;5014989;28;20376;-78
2023/09/30 02:40:04;;;;;;;7.22;2.95;;;;;;;21.28;100.00;96993.72;5015353;28;20349;-78
2023/09/30 02:42:30;;;;;;;5.28;3.13;;;;;;;21.30;100.00;96995.16;5030596;28;20045;-78
2023/09/30 02:45:01;;;;;;;8.60;3.22;;;;;;;21.11;100.00;96996.00;5019739;28;20102;-78
2023/09/30 02:47:26;;;;;;;8.02;3.78;;;;;;;21.31;100.00;96995.97;5015370;28;20040;-78
2023/09/30 02:49:52;;;;;;;7.88;4.32;;;;;;;21.04;100.00;97011.22;5035258;28;20034;-79
2023/09/30 02:52:18;;;;;;;7.50;3.70;;;;;;;21.19;100.00;97010.00;5031656;28;20033;-79
2023/09/30 02:54:43;;;;;;;7.90;3.80;;;;;;;21.32;100.00;97013.66;5030270;28;20391;-78
2023/09/30 02:57:09;;;;;;;7.60;3.65;;;;;;;21.11;100.00;97012.84;5031169;28;20040;-78
2023/09/30 02:59:36;;;;;;;6.65;3.60;;;;;;;21.50;100.00;96997.00;5012647;28;20060;-78
2023/09/30 03:02:03;;;;;;;7.40;3.67;;;;;;;21.16;100.00;97010.41;5014589;28;20047;-78
2023/09/30 03:04:28;;;;;;;6.80;3.70;;;;;;;21.22;100.00;97024.78;5035106;28;20029;-78
2023/09/30 03:06:56;;;;;;;9.60;4.07;;;;;;;21.49;100.00;97008.72;5028060;28;20388;-78
2023/09/30 03:09:22;;;;;;;7.07;4.25;;;;;;;21.65;100.00;97019.78;5010735;28;20032;-79
2023/09/30 03:11:48;;;;;;;8.53;4.10;;;;;;;21.41;100.00;97021.28;5012128;28;20059;-78
2023/09/30 03:14:13;;;;;;;9.97;4.97;;;;;;;21.01;100.00;97020.47;5018898;28;20475;-78
2023/09/30 03:16:41;;;;;;;10.48;4.38;;;;;;;21.22;100.00;97027.44;5022782;28;20033;-78
2023/09/30 03:19:08;;;;;;;10.40;4.85;;;;;;;20.99;100.00;97032.41;5004514;28;20076;-78
2023/09/30 03:21:36;;;;;;;6.93;3.90;;;;;;;21.07;100.00;97032.22;5004576;28;20112;-78
2023/09/30 03:24:07;;;;;;;7.25;4.15;;;;;;;21.28;100.00;97029.31;5032709;28;20043;-78
2023/09/30 03:26:33;;;;;;;11.50;4.60;;;;;;;21.03;100.00;97031.78;5010412;28;20512;-78
2023/09/30 03:28:59;;;;;;;10.02;4.20;;;;;;;21.36;100.00;97025.63;5011773;28;20084;-78
2023/09/30 03:31:25;;;;;;;8.88;3.97;;;;;;;21.64;100.00;97036.06;5024064;28;20021;-78
2023/09/30 03:33:53;;;;;;;8.27;4.35;;;;;;;21.22;100.00;97027.44;5031758;28;20914;-78
2023/09/30 03:36:25;;;;;;;7.97;4.80;;;;;;;21.47;100.00;97018.81;5005591;28;20034;-78
2023/09/30 03:39:05;;;;;;;7.85;4.47;;;;;;;21.50;100.00;97021.09;5028062;28;20028;-78
2023/09/30 03:41:33;;;;;;;8.38;4.82;;;;;;;21.50;100.00;97026.44;5029993;28;20540;-78
2023/09/30 03:43:58;;;;;;;11.50;5.85;;;;;;;21.28;100.00;97031.16;5024751;28;20030;-79
2023/09/30 03:46:26;;;;;;;7.50;4.32;;;;;;;21.31;100.00;97028.88;5010123;28;20365;-78
2023/09/30 03:48:51;;;;;;;8.98;5.07;;;;;;;21.21;100.00;97031.16;5027769;28;20036;-78
2023/09/30 03:51:17;;;;;;;8.48;4.97;;;;;;;21.20;100.00;97026.84;5026627;28;20030;-78
2023/09/30 03:53:46;;;;;;;8.10;4.50;;;;;;;21.20;100.00;97040.22;5022662;28;20018;-78
2023/09/30 03:56:13;;;;;;;9.13;4.35;;;;;;;21.41;100.00;97033.84;5010341;28;20123;-78
2023/09/30 03:58:42;;;;;;;9.40;4.95;;;;;;;21.14;100.00;97039.19;5016920;28;20099;-78
2023/09/30 04:01:11;;;;;;;7.43;4.85;;;;;;;21.06;100.00;97041.22;5028625;28;20100;-79
2023/09/30 04:03:39;;;;;;;8.32;4.57;;;;;;;21.17;100.00;97038.78;5029044;28;20037;-78
2023/09/30 04:06:06;;;;;;;8.23;5.10;;;;;;;21.18;100.00;97036.94;5017506;28;20167;-78
2023/09/30 04:08:33;;;;;;;8.18;3.90;;;;;;;21.34;100.00;97027.66;5010622;28;20036;-78
2023/09/30 04:11:07;;;;;;;10.48;4.78;;;;;;;21.26;100.00;97030.53;5020078;28;20052;-78
2023/09/30 04:13:33;;;;;;;11.63;5.90;;;;;;;21.08;100.00;97033.84;5011514;28;20029;-79
2023/09/30 04:15:58;;;;;;;9.05;5.80;;;;;;;21.18;100.00;97029.72;5035332;28;20017;-78
2023/09/30 04:18:26;;;;;;;9.77;4.85;;;;;;;21.13;100.00;97031.38;5010103;28;20442;-78
2023/09/30 04:20:55;;;;;;;7.45;4.97;;;;;;;21.48;100.00;97023.13;5019007;28;20025;-78
2023/09/30 04:23:21;;;;;;;6.93;4.55;;;;;;;21.36;100.00;97023.78;5036117;28;20055;-78
2023/09/30 04:25:47;;;;;;;8.20;4.97;;;;;;;21.27;100.00;97026.84;5008065;28;20064;-78
2023/09/30 04:28:13;;;;;;;8.23;5.40;;;;;;;20.93;100.00;97040.22;5025378;28;20652;-78
2023/09/30 04:30:40;;;;;;;9.55;5.32;;;;;;;21.17;100.00;97032.63;5029172;28;20032;-78
2023/09/30 04:33:05;;;;;;;9.20;5.10;;;;;;;20.98;100.00;97038.78;5036691;28;20028;-78
2023/09/30 04:35:31;;;;;;;6.38;4.20;;;;;;;21.02;100.00;97048.03;5038033;28;20033;-78
2023/09/30 04:38:04;;;;;;;8.65;4.70;;;;;;;20.94;100.00;97041.03;5015737;28;20044;-78
2023/09/30 04:40:30;;;;;;;7.32;4.30;;;;;;;21.22;100.00;97051.53;5022195;28;20025;-78
2023/09/30 04:42:58;;;;;;;8.45;5.00;;;;;;;20.69;100.00;97062.19;5043704;28;20052;-78
2023/09/30 04:45:25;;;;;;;8.48;4.43;;;;;;;20.78;100.00;97060.97;5050008;28;20056;-79
2023/09/30 04:47:56;;;;;;;9.85;4.95;;;;;;;20.87;100.00;97059.75;5006339;28;20033;-78
2023/09/30 04:50:22;;;;;;;8.90;5.57;;;;;;;20.82;100.00;97058.72;5027414;28;20029;-78
2023/09/30 04:52:48;;;;;;;13.20;5.60;;;;;;;20.63;100.00;97063.00;5014063;28;20113;-78
2023/09/30 04:55:16;;;;;;;9.52;5.95;;;;;;;20.73;100.00;97055.41;5032432;28;20096;-78
2023/09/30 04:57:47;;;;;;;8.18;5.32;;;;;;;20.77;100.00;97062.00;5037361;28;20037;-78
2023/09/30 05:00:15;;;;;;;9.98;5.32;;;;;;;20.59;100.00;97067.09;5039421;28;20039;-77
2023/09/30 05:02:40;;;;;;;9.90;5.68;;;;;;;20.69;100.00;97064.84;5032606;28;20028;-78
2023/09/30 05:05:07;;;;;;;10.77;5.78;;;;;;;20.79;100.00;97065.31;5030272;28;20380;-78
2023/09/30 05:07:33;;;;;;;9.13;5.35;;;;;;;20.71;100.00;97060.94;5030379;28;20088;-78
2023/09/30 05:09:59;;;;;;;9.57;5.38;;;;;;;20.69;100.00;97067.53;5013021;28;20021;-78
2023/09/30 05:12:25;;;;;;;7.95;4.88;;;;;;;20.78;100.00;97060.97;5030847;28;20101;-78
2023/09/30 05:14:51;;;;;;;11.73;6.10;;;;;;;20.33;100.00;97074.00;5023613;28;20120;-78
2023/09/30 05:17:17;;;;;;;10.63;6.30;;;;;;;20.76;100.00;97068.38;5031744;28;20121;-78
2023/09/30 05:19:44;;;;;;;12.27;5.82;;;;;;;20.91;100.00;97074.34;5008554;28;20507;-78
2023/09/30 05:22:10;;;;;;;9.70;4.72;;;;;;;20.66;100.00;97073.31;5029958;28;20021;-78
2023/09/30 05:24:35;;;;;;;9.27;4.93;;;;;;;20.40;100.00;97074.84;5030562;28;20407;-78
2023/09/30 05:27:01;;;;;;;8.98;5.20;;;;;;;20.37;100.00;97072.56;5018933;28;20039;-79
2023/09/30 05:29:28;;;;;;;9.73;5.50;;;;;;;20.46;100.00;97058.00;5035424;28;20073;-78
2023/09/30 05:31:57;;;;;;;8.68;5.90;;;;;;;20.33;100.00;97067.81;5028397;28;20037;-78
2023/09/30 05:34:22;;;;;;;9.95;5.95;;;;;;;20.26;100.00;97073.16;5031926;28;20028;-79
2023/09/30 05:36:48;;;;;;;10.82;5.93;;;;;;;20.26;100.00;97073.16;5031202;28;20480;-78
2023/09/30 05:39:19;;;;;;;9.50;5.45;;;;;;;20.34;100.00;97072.97;5019580;28;20025;-78
2023/09/30 05:41:44;;;;;;;8.77;4.93;;;;;;;20.32;100.00;97077.69;5017997;28;20025;-79
2023/09/30 05:44:10;;;;;;;9.85;5.72;;;;;;;20.32;100.00;97069.69;5026194;28;20032;-78
2023/09/30 05:46:35;;;;;;;8.48;4.72;;;;;;;20.31;100.00;97073.34;5028987;28;20022;-78
2023/09/30 05:49:01;;;;;;;9.73;4.70;;;;;;;20.64;100.00;97083.34;5013619;28;20033;-78
2023/09/30 05:51:27;;;;;;;7.90;4.95;;;;;;;20.61;100.00;97078.41;5029738;28;20018;-79
2023/09/30 05:53:54;;;;;;;9.10;5.00;;;;;;;20.53;100.00;97074.09;5019954;28;20017;-78
2023/09/30 05:56:20;;;;;;;6.85;4.82;;;;;;;20.80;100.00;97072.28;5028122;28;20526;-78
2023/09/30 05:58:46;;;;;;;10.07;5.10;;;;;;;20.80;100.00;97069.63;5019164;28;20029;-78
2023/09/30 06:01:12;;;;;;;11.45;5.28;;;;;;;20.87;100.00;97078.47;5013708;28;20033;-78
2023/09/30 06:03:41;;;;;;;11.55;5.30;;;;;;;20.82;100.00;97072.06;5028763;28;20032;-78
2023/09/30 06:06:12;;;;;;;10.35;5.20;;;;;;;20.87;100.00;97091.00;5013631;28;20052;-78
2023/09/30 06:08:38;;;;;;;7.10;4.75;;;;;;;20.80;100.00;97090.19;5031055;28;20036;-78
2023/09/30 06:11:04;;;;;;;7.22;4.82;;;;;;;20.87;100.00;97086.50;5012677;28;20052;-79
2023/09/30 06:13:31;;;;;;;11.20;4.78;;;;;;;20.68;100.00;97082.75;5033503;28;20032;-79
2023/09/30 06:15:57;;;;;;;10.48;5.70;;;;;;;20.56;100.00;97083.56;5010497;28;20116;-78
2023/09/30 06:18:23;;;;;;;9.18;4.95;;;;;;;20.90;100.00;97086.09;5034204;28;20025;-79
2023/09/30 06:20:50;;;;;;;7.60;5.00;;;;;;;20.74;100.00;97091.00;5018646;28;20408;-78
2023/09/30 06:23:16;;;;;;;10.23;5.53;;;;;;;20.99;100.00;97094.72;5025231;28;20077;-79
2023/09/30 06:25:42;;;;;;;9.85;5.30;;;;;;;20.88;100.00;97109.50;5032329;28;20060;-79
2023/09/30 06:28:08;;;;;;;9.18;5.57;;;;;;;21.03;100.00;97105.84;5018723;28;20033;-79
2023/09/30 06:30:34;;;;;;;10.50;5.32;;;;;;;21.00;100.00;97108.94;5037169;28;20029;-78
2023/09/30 06:33:01;;;;;;;9.48;5.10;;;;;;;21.12;100.00;97116.13;5006857;28;20033;-78
2023/09/30 06:35:30;;;;;;;10.60;5.88;;;;;;;21.11;100.00;97122.50;5013844;28;20032;-78
2023/09/30 06:37:55;;;;;;;8.88;5.07;;;;;;;21.29;100.00;97121.09;5020454;28;20053;-78
2023/09/30 06:40:22;;;;;;;9.93;5.30;;;;;;;21.04;100.00;97135.06;5010837;28;20053;-78
2023/09/30 06:42:47;;;;;;;11.32;6.10;;;;;;;21.00;100.00;97138.34;5027876;28;20024;-78
2023/09/30 06:45:13;;;;;;;12.43;6.28;;;;;;;20.89;100.00;97131.72;5028380;28;20422;-79
2023/09/30 06:47:41;;;;;;;8.63;6.00;;;;;;;21.21;100.00;97134.66;5016463;28;20025;-78
2023/09/30 06:50:12;;;;;;;9.65;5.82;;;;;;;21.12;100.00;97142.88;5022718;28;20108;-78
2023/09/30 06:52:39;;;;;;;7.53;4.93;;;;;;;21.44;100.00;97147.69;5035343;28;20037;-78
2023/09/30 06:55:06;;;;;;;10.57;5.38;;;;;;;21.29;100.00;97137.94;5029153;28;20030;-78
2023/09/30 06:57:33;;;;;;;9.98;5.15;;;;;;;21.37;100.00;97142.34;5025080;28;20503;-78
2023/09/30 06:59:59;;;;;;;11.43;5.55;;;;;;;21.72;100.00;97153.63;5009903;28;20492;-78
2023/09/30 07:02:25;;;;;;;7.75;4.82;;;;;;;21.46;100.00;97162.50;5024062;28;20067;-78
2023/09/30 07:04:52;;;;;;;8.38;5.03;;;;;;;21.42;100.00;97159.41;5008930;28;20079;-78
2023/09/30 07:07:17;;;;;;;11.27;5.47;;;;;;;21.25;100.00;97168.00;5008053;28;20049;-78
2023/09/30 07:09:44;;;;;;;10.63;5.30;;;;;;;21.25;100.00;97174.19;5036477;28;20028;-79
2023/09/30 07:12:10;;;;;;;9.80;5.70;;;;;;;21.38;100.00;97173.41;5020923;28;20446;-78
2023/09/30 07:14:35;;;;;;;7.80;5.00;;;;;;;21.21;100.00;97166.78;5012571;28;20057;-78
2023/09/30 07:17:04;;;;;;;11.25;5.68;;;;;;;21.44;100.00;97174.44;5023029;28;20111;-80
2023/09/30 07:19:30;;;;;;;7.93;4.68;;;;;;;21.49;100.00;97163.94;5016135;28;20026;-78
2023/09/30 07:21:56;;;;;;;10.40;5.32;;;;;;;21.45;100.00;97168.06;5033574;28;20029;-78
2023/09/30 07:24:21;;;;;;;11.02;5.53;;;;;;;21.18;100.00;97160.78;5032089;28;20044;-79
2023/09/30 07:26:47;;;;;;;10.38;5.20;;;;;;;21.58;100.00;97163.53;5013719;28;20021;-79
2023/09/30 07:29:12;;;;;;;11.23;5.50;;;;;;;22.08;100.00;97163.06;5012937;28;20087;-78
2023/09/30 07:31:38;;;;;;;10.75;6.47;;;;;;;21.76;100.00;97162.06;5024468;28;20037;-78
2023/09/30 07:34:04;;;;;;;12.77;6.13;;;;;;;21.80;100.00;97166.81;5022240;28;20487;-79
2023/09/30 07:36:29;;;;;;;10.60;5.70;;;;;;;22.20;100.00;97172.16;5037928;28;20464;-79
2023/09/30 07:38:55;;;;;;;9.43;5.07;;;;;;;22.67;100.00;97183.53;5019305;28;20048;-80
2023/09/30 07:41:21;;;;;;;9.15;5.22;;;;;;;22.78;100.00;97188.22;5010562;28;20377;-79
2023/09/30 07:43:46;;;;;;;11.10;5.15;;;;;;;22.54;100.00;97178.22;5027776;28;20056;-79
2023/09/30 07:46:12;;;;;;;10.35;5.80;;;;;;;23.64;100.00;97184.22;5006326;28;20460;-79
2023/09/30 07:48:39;;;;;;;7.60;4.90;;;;;;;24.41;100.00;97194.72;5027376;28;20033;-78
2023/09/30 07:51:09;;;;;;;9.45;5.22;;;;;;;23.89;100.00;97186.94;5003401;28;20041;-79
2023/09/30 07:53:34;;;;;;;11.20;4.97;;;;;;;24.32;100.00;97191.47;5031211;28;20108;-79
2023/09/30 07:56:00;;;;;;;10.18;5.50;;;;;;;24.49;100.00;97180.97;5034663;28;20108;-79
2023/09/30 07:58:26;;;;;;;8.57;5.32;;;;;;;24.04;100.00;97181.19;5026159;28;20104;-79
2023/09/30 08:00:51;;;;;;;8.63;4.50;;;;;;;24.64;100.00;97178.72;5010581;28;20032;-79
2023/09/30 08:03:18;;;;;;;9.88;5.18;;;;;;;25.02;100.00;97184.88;5005853;28;20488;-79
2023/09/30 08:05:43;;;;;;;7.88;4.90;;;;;;;24.93;99.85;97184.38;5017727;28;20071;-79
2023/09/30 08:08:09;;;;;;;11.70;4.97;;;;;;;25.37;100.00;97182.34;5001699;28;20013;-79
2023/09/30 08:10:36;;;;;;;11.50;5.07;;;;;;;24.81;100.00;97196.94;5020172;28;20030;-79
2023/09/30 08:13:02;;;;;;;9.43;4.90;;;;;;;24.88;98.52;97192.28;5019098;28;20049;-79
2023/09/30 08:15:28;;;;;;;10.23;5.00;;;;;;;24.28;100.00;97195.66;5012272;28;20045;-79
2023/09/30 08:17:53;;;;;;;8.73;4.57;;;;;;;24.72;99.96;97198.31;4998866;28;20459;-79
2023/09/30 08:20:19;;;;;;;11.40;5.40;;;;;;;24.93;98.78;97208.59;5024713;28;20079;-79
2023/09/30 08:22:44;;;;;;;8.38;5.05;;;;;;;24.73;91.03;97200.75;5031343;28;20319;-78
2023/09/30 08:25:12;;;;;;;10.68;5.20;;;;;;;24.82;92.67;97185.16;5010389;28;20021;-79
2023/09/30 08:27:41;;;;;;;8.68;4.97;;;;;;;23.86;100.00;97189.25;5031288;28;20100;-79
2023/09/30 08:30:07;;;;;;;8.77;4.80;;;;;;;24.21;98.50;97198.41;5018614;28;20017;-79
2023/09/30 08:32:36;;;;;;;8.93;5.30;;;;;;;23.75;100.00;97194.28;5024326;28;20025;-79
2023/09/30 08:35:05;;;;;;;9.35;5.18;;;;;;;24.61;99.78;97195.31;5024714;28;20059;-79
2023/09/30 08:37:31;;;;;;;9.15;4.85;;;;;;;24.20;100.00;97204.81;5010724;28;20090;-79
2023/09/30 08:39:57;;;;;;;9.85;5.07;;;;;;;24.19;100.00;97197.81;5012110;28;20380;-79
2023/09/30 08:42:24;;;;;;;13.23;6.45;;;;;;;24.61;100.00;97206.06;5026494;28;20028;-79
2023/09/30 08:44:54;;;;;;;9.30;5.78;;;;;;;24.25;100.00;97203.34;5023835;28;20543;-79
2023/09/30 08:47:20;;;;;;;9.63;5.32;;;;;;;24.08;100.00;97201.22;5026379;28;20033;-79
2023/09/30 08:49:48;;;;;;;10.60;4.68;;;;;;;24.61;96.14;97189.09;5028775;28;20049;-80
2023/09/30 08:52:14;;;;;;;8.52;4.30;;;;;;;26.31;84.59;97177.03;5012721;28;20033;-79
2023/09/30 08:54:40;;;;;;;9.77;5.28;;;;;;;25.73;88.40;97165.19;4999805;28;20484;-79
2023/09/30 08:57:09;;;;;;;8.45;4.55;;;;;;;26.92;79.91;97166.72;5010658;28;20022;-79
2023/09/30 08:59:35;;;;;;;9.85;4.85;;;;;;;27.33;72.49;97162.09;5019040;28;20025;-79
2023/09/30 09:02:01;;;;;;;9.73;4.45;;;;;;;27.60;67.60;97167.69;5008341;28;20049;-79
2023/09/30 09:04:27;;;;;;;11.68;4.88;;;;;;;28.65;62.41;97164.13;5024740;28;20052;-79
2023/09/30 09:06:55;;;;;;;21.33;7.43;;;;;;;29.24;57.45;97174.31;5028003;28;20441;-79
2023/09/30 09:09:22;;;;;;;7.68;4.63;;;;;;;28.82;58.59;97176.78;5015106;28;20025;-80
2023/09/30 09:11:48;;;;;;;10.27;4.50;;;;;;;27.40;63.88;97166.28;5009714;28;20072;-80
2023/09/30 09:14:14;;;;;;;9.63;4.65;;;;;;;27.36;66.61;97167.00;5031566;28;20017;-81
2023/09/30 09:16:54;;;;;;;16.10;5.00;;;;;;;28.34;60.33;97164.78;5030139;28;20029;-79
2023/09/30 09:19:21;;;;;;;9.90;4.68;;;;;;;28.94;54.60;97163.09;5007597;28;20017;-78
2023/09/30 09:22:00;;;;;;;10.40;5.03;;;;;;;29.31;51.04;97155.94;5018673;28;20329;-80
2023/09/30 09:24:38;;;;;;;11.52;4.60;;;;;;;29.86;51.77;97162.13;5031081;28;20030;-79
2023/09/30 09:27:12;;;;;;;10.85;4.53;;;;;;;30.32;49.44;97164.34;5029626;28;20017;-79
2023/09/30 09:29:39;;;;;;;7.97;4.30;;;;;;;29.51;51.20;97171.56;5031498;28;20025;-79
2023/09/30 09:32:16;;;;;;;12.40;4.15;;;;;;;29.17;52.61;97168.25;5039011;28;20036;-79
2023/09/30 09:34:44;;;;;;;8.68;4.35;;;;;;;30.76;47.26;97167.56;5031837;28;20037;-79
2023/09/30 09:37:20;;;;;;;8.55;3.67;;;;;;;30.02;49.94;97168.47;5032094;28;20021;-79
2023/09/30 09:39:56;;;;;;;9.93;4.22;;;;;;;29.01;50.44;97171.91;5041770;28;20454;-79
2023/09/30 09:42:33;;;;;;;7.57;4.28;;;;;;;29.99;47.53;97171.72;5033878;28;20079;-80
2023/09/30 09:45:05;;;;;;;11.00;5.03;;;;;;;30.10;45.93;97165.25;5018593;28;20033;-79
2023/09/30 09:47:32;;;;;;;9.55;4.15;;;;;;;31.09;45.14;97162.78;5028370;28;20009;-79
2023/09/30 09:49:59;;;;;;;7.95;4.28;;;;;;;30.59;46.04;97169.63;5019579;28;20034;-80
2023/09/30 09:52:27;;;;;;;8.80;3.85;;;;;;;31.24;43.87;97171.75;5036486;28;20104;-79
2023/09/30 09:54:53;;;;;;;8.05;4.10;;;;;;;30.52;45.89;97164.44;5039278;28;20057;-80
2023/09/30 09:57:19;;;;;;;8.40;4.63;;;;;;;31.17;43.37;97165.78;5032803;28;20037;-80
2023/09/30 09:59:48;;;;;;;16.92;10.80;;;;;;;30.92;43.73;97158.38;5016985;28;20078;-79
2023/09/30 10:02:17;;;;;;;10.85;5.50;;;;;;;30.40;44.73;97161.94;5027656;28;20419;-79
2023/09/30 10:04:47;;;;;;;10.13;4.90;;;;;;;29.97;44.26;97161.09;5028432;28;20091;-79
2023/09/30 10:07:20;;;;;;;9.55;4.80;;;;;;;29.67;45.67;97164.41;5013535;28;20013;-79
2023/09/30 10:09:51;;;;;;;8.90;4.15;;;;;;;30.01;45.12;97162.25;5038995;28;20108;-79
2023/09/30 10:12:18;;;;;;;8.45;3.88;;;;;;;31.07;44.23;97148.63;5027009;28;20467;-79
2023/09/30 10:14:44;;;;;;;8.02;4.30;;;;;;;30.58;44.15;97146.28;5028681;28;20065;-79
2023/09/30 10:17:10;;;;;;;9.48;4.68;;;;;;;30.45;43.99;97142.13;5014043;28;20025;-79
2023/09/30 10:19:35;;;;;;;9.90;4.85;;;;;;;30.37;43.38;97142.66;5039755;28;20020;-79
2023/09/30 10:22:19;;;;;;;7.63;4.32;;;;;;;31.31;41.27;97143.50;5038277;28;20029;-80
2023/09/30 10:24:46;;;;;;;9.40;5.07;;;;;;;29.23;44.87;97132.00;5013078;28;20029;-80
2023/09/30 10:27:24;;;;;;;9.52;4.97;;;;;;;30.69;42.47;97140.63;5016461;28;20445;-80
2023/09/30 10:30:23;;;;;;;8.73;4.60;;;;;;;31.20;41.41;97138.06;5022141;28;20025;-80
2023/09/30 10:32:51;;;;;;;9.02;4.28;;;;;;;30.60;43.49;97133.25;5020239;28;20127;-80
2023/09/30 10:35:21;;;;;;;10.15;4.55;;;;;;;31.95;39.75;97132.13;5030271;28;20021;-80
2023/09/30 10:37:48;;;;;;;8.85;4.57;;;;;;;32.29;39.73;97140.47;5031815;28;20021;-79
2023/09/30 10:40:27;;;;;;;10.45;4.90;;;;;;;31.55;39.39;97141.91;5019435;28;20029;-79
2023/09/30 10:42:54;;;;;;;8.27;4.60;;;;;;;31.33;39.72;97144.09;5028552;28;20021;-78
2023/09/30 10:45:43;;;;;;;10.55;5.25;;;;;;;31.39;39.06;97141.13;5026940;28;20071;-80
2023/09/30 10:48:31;;;;;;;11.55;5.38;;;;;;;31.73;36.22;97150.66;5016558;28;20033;-79
2023/09/30 10:51:00;;;;;;;11.63;5.10;;;;;;;30.74;37.09;97151.50;5011763;28;20112;-79
2023/09/30 10:53:29;;;;;;;10.32;5.00;;;;;;;29.87;39.82;97158.31;5025949;28;20033;-78
2023/09/30 10:55:57;;;;;;;10.90;5.28;;;;;;;30.60;38.73;97149.53;5041305;28;20028;-79
2023/09/30 10:58:39;;;;;;;11.00;5.15;;;;;;;29.89;40.25;97142.63;5036990;28;20017;-79
2023/09/30 11:01:05;;;;;;;10.30;5.75;;;;;;;29.59;39.73;97146.72;5023948;28;20394;-79
2023/09/30 11:03:30;;;;;;;10.25;5.53;;;;;;;29.71;41.19;97132.16;5032349;28;20056;-79
2023/09/30 11:05:56;;;;;;;10.70;5.00;;;;;;;28.75;42.53;97139.06;5040311;28;20025;-79
2023/09/30 11:08:23;;;;;;;8.35;4.80;;;;;;;29.06;43.47;97131.31;5031603;28;20388;-79
2023/09/30 11:10:53;;;;;;;10.05;5.38;;;;;;;30.35;40.20;97126.66;5015870;28;20045;-79
2023/09/30 11:13:19;;;;;;;11.60;5.05;;;;;;;31.07;39.69;97127.72;5036034;28;20027;-79
2023/09/30 11:15:45;;;;;;;11.20;5.65;;;;;;;30.33;39.52;97127.97;5028150;28;20051;-78
2023/09/30 11:18:18;;;;;;;12.32;5.93;;;;;;;31.21;38.24;97122.56;5035922;28;20029;-79
2023/09/30 11:20:44;;;;;;;10.02;5.05;;;;;;;30.24;37.86;97114.91;5022680;28;20025;-79
2023/09/30 11:23:15;;;;;;;10.73;5.82;;;;;;;31.06;36.58;97101.66;5038617;28;20021;-79
2023/09/30 11:25:41;;;;;;;12.50;5.85;;;;;;;30.65;36.07;97092.53;5020325;28;20048;-79